TimeAST,TemperatureF,Dew PointF,Humidity,Sea Level PressureIn,VisibilityMPH,Wind Direction,Wind SpeedMPH,Gust SpeedMPH,PrecipitationIn,Events,Conditions,WindDirDegrees,DateUTC
12:43 AM,75.2,69.8,83,30.04,10.0,SE,10.4,-,N/A,,Overcast,130,2013-04-19 04:43:00
12:53 AM,75.9,71.1,85,30.05,5.0,SE,11.5,20.7,0.12,Rain,Light Rain,130,2013-04-19 04:53:00
1:24 AM,73.4,71.6,94,30.02,10.0,ENE,4.6,-,0.13,,Overcast,70,2013-04-19 05:24:00
1:53 AM,75.9,70.0,82,30.02,10.0,East,15.0,20.7,0.13,,Partly Cloudy,80,2013-04-19 05:53:00
2:53 AM,75.9,70.0,82,30.00,10.0,East,13.8,-,N/A,,Scattered Clouds,90,2013-04-19 06:53:00
3:53 AM,75.9,69.1,79,29.99,10.0,East,11.5,-,N/A,,Partly Cloudy,90,2013-04-19 07:53:00
4:53 AM,75.9,69.1,79,30.00,10.0,East,8.1,-,N/A,,Scattered Clouds,90,2013-04-19 08:53:00
5:53 AM,77.0,69.1,76,30.02,10.0,East,11.5,-,N/A,,Partly Cloudy,80,2013-04-19 09:53:00
6:53 AM,77.0,69.1,76,30.04,10.0,East,13.8,24.2,N/A,,Mostly Cloudy,90,2013-04-19 10:53:00
8:53 AM,81.0,68.0,65,30.06,10.0,East,23.0,32.2,N/A,,Clear,80,2013-04-19 12:53:00
9:53 AM,81.0,68.0,65,30.07,10.0,East,16.1,32.2,N/A,,Mostly Cloudy,90,2013-04-19 13:53:00
10:53 AM,81.0,69.1,67,30.07,10.0,East,15.0,25.3,N/A,,Overcast,80,2013-04-19 14:53:00
11:53 AM,81.0,69.1,67,30.06,10.0,ENE,20.7,28.8,0.00,,Overcast,70,2013-04-19 15:53:00
12:53 PM,82.9,68.0,60,30.04,10.0,East,19.6,32.2,N/A,,Clear,80,2013-04-19 16:53:00
1:53 PM,82.0,69.1,65,30.03,10.0,East,21.9,28.8,N/A,,Mostly Cloudy,90,2013-04-19 17:53:00
2:53 PM,82.0,69.1,65,30.02,10.0,East,19.6,26.5,0.00,,Mostly Cloudy,80,2013-04-19 18:53:00
5:53 PM,79.0,68.0,69,30.03,10.0,East,16.1,21.9,N/A,,Mostly Cloudy,80,2013-04-19 21:53:00
8:53 PM,78.1,69.1,74,30.08,10.0,East,12.7,-,N/A,,Mostly Cloudy,90,2013-04-20 00:53:00
9:53 PM,77.0,68.0,74,30.09,10.0,East,9.2,-,N/A,,Clear,80,2013-04-20 01:53:00
10:53 PM,78.1,69.1,74,30.08,10.0,East,12.7,27.6,N/A,,Partly Cloudy,90,2013-04-20 02:53:00
11:53 PM,78.1,70.0,76,30.06,10.0,East,13.8,-,N/A,,Overcast,80,2013-04-20 03:53:00